createdAt,value
2019-01-20T00:01:49.517Z,111.92
2019-01-20T00:04:18.339Z,111.30
2019-01-20T00:06:47.231Z,113.32
2019-01-20T00:09:15.453Z,134.12
2019-01-20T00:11:44.325Z,130.82
2019-01-20T00:14:13.749Z,180.90
2019-01-20T00:16:41.812Z,220.90
2019-01-20T00:19:10.116Z,168.75
2019-01-20T00:21:38.412Z,99.43
2019-01-20T00:24:07.006Z,139.45
2019-01-20T00:26:35.028Z,114.37
2019-01-20T00:29:03.354Z,124.40
2019-01-20T00:31:31.671Z,151.68
2019-01-20T00:33:59.958Z,100.62
2019-01-20T00:36:28.498Z,88.40
2019-01-20T00:38:56.473Z,90.35
2019-01-20T00:41:24.838Z,147.45
2019-01-20T00:43:53.420Z,214.40
2019-01-20T00:46:21.384Z,134.75
2019-01-20T00:48:49.666Z,134.97
2019-01-20T00:51:17.928Z,161.57
2019-01-20T00:53:46.528Z,188.12
2019-01-20T00:56:14.789Z,158.17
2019-01-20T00:58:43.491Z,160.43
2019-01-20T01:01:11.758Z,122.40
2019-01-20T01:03:40.037Z,118.60
2019-01-20T01:06:08.326Z,173.75
2019-01-20T01:08:36.706Z,148.80
2019-01-20T01:11:05.085Z,176.18
2019-01-20T01:13:33.344Z,103.53
2019-01-20T01:16:01.636Z,140.82
2019-01-20T01:18:29.926Z,169.45
2019-01-20T01:21:00.030Z,95.85
2019-01-20T01:23:28.618Z,91.80
2019-01-20T01:25:56.947Z,66.57
2019-01-20T01:28:25.461Z,65.95
2019-01-20T01:30:53.762Z,97.40
2019-01-20T01:33:22.437Z,88.60
2019-01-20T01:35:50.430Z,110.42
2019-01-20T01:38:18.854Z,103.07
2019-01-20T01:40:47.127Z,198.87
2019-01-20T01:43:15.441Z,170.95
2019-01-20T01:45:43.737Z,113.97
2019-01-20T01:48:11.688Z,135.80
2019-01-20T01:50:39.657Z,85.70
2019-01-20T01:53:07.652Z,75.70
2019-01-20T01:55:36.097Z,110.23
2019-01-20T01:58:04.388Z,146.02
2019-01-20T02:00:32.671Z,163.50
2019-01-20T02:03:00.997Z,114.08
2019-01-20T02:05:29.220Z,162.12
2019-01-20T02:07:57.792Z,64.70
2019-01-20T02:10:25.787Z,71.77
2019-01-20T02:12:54.462Z,68.45
2019-01-20T02:15:23.285Z,199.10
2019-01-20T02:17:51.356Z,337.05
2019-01-20T02:20:20.449Z,198.28
2019-01-20T02:22:48.428Z,70.35
2019-01-20T02:25:16.499Z,102.53
2019-01-20T02:27:44.524Z,109.30
2019-01-20T02:30:18.302Z,115.57
2019-01-20T02:32:46.557Z,180.20
2019-01-20T02:35:14.709Z,90.05
2019-01-20T02:37:43.269Z,96.72
2019-01-20T02:40:11.481Z,117.00
2019-01-20T02:42:40.088Z,89.32
2019-01-20T02:45:08.730Z,98.58
2019-01-20T02:47:37.302Z,138.67
2019-01-20T02:50:06.096Z,150.05
2019-01-20T02:52:34.081Z,110.32
2019-01-20T02:55:02.334Z,80.80
2019-01-20T02:57:30.301Z,172.10
2019-01-20T02:59:58.293Z,183.15
2019-01-20T03:02:26.256Z,205.72
2019-01-20T03:04:54.521Z,109.72
2019-01-20T03:07:22.800Z,130.45
2019-01-20T03:09:50.749Z,270.37
2019-01-20T03:12:20.590Z,145.10
2019-01-20T03:14:48.575Z,120.47
2019-01-20T03:17:16.578Z,183.95
2019-01-20T03:19:45.518Z,161.85
2019-01-20T03:22:13.454Z,89.40
2019-01-20T03:24:41.784Z,127.87
2019-01-20T03:27:10.101Z,117.42
2019-01-20T03:29:38.312Z,88.82
2019-01-20T03:32:06.908Z,131.00
2019-01-20T03:34:35.480Z,66.23
2019-01-20T03:37:03.763Z,60.98
2019-01-20T03:39:32.296Z,66.92
2019-01-20T03:42:00.265Z,124.40
2019-01-20T03:44:28.309Z,277.80
2019-01-20T03:46:56.576Z,88.78
2019-01-20T03:49:25.133Z,85.03
2019-01-20T03:51:53.392Z,123.18
2019-01-20T03:54:22.006Z,121.87
2019-01-20T03:56:50.598Z,119.85
2019-01-20T03:59:19.229Z,127.97
2019-01-20T04:01:47.235Z,128.35
2019-01-20T04:04:15.509Z,102.30
2019-01-20T04:06:43.787Z,170.23
2019-01-20T04:09:12.082Z,147.43
2019-01-20T04:11:40.020Z,143.90
2019-01-20T04:14:08.032Z,109.25
2019-01-20T04:16:36.898Z,81.82
2019-01-20T04:19:04.866Z,167.95
2019-01-20T04:21:32.809Z,141.03
2019-01-20T04:24:00.831Z,72.72
2019-01-20T04:26:29.099Z,53.63
2019-01-20T04:28:57.125Z,163.20
2019-01-20T04:31:25.431Z,144.30
2019-01-20T04:33:53.980Z,175.70
2019-01-20T04:36:22.309Z,164.10
2019-01-20T04:38:50.560Z,244.18
2019-01-20T04:41:18.554Z,124.07
2019-01-20T04:43:46.528Z,183.80
2019-01-20T04:46:14.868Z,83.62
2019-01-20T04:48:42.827Z,92.00
2019-01-20T04:51:11.561Z,222.48
2019-01-20T04:53:40.516Z,269.50
2019-01-20T04:56:08.830Z,198.38
2019-01-20T04:58:36.774Z,199.30
2019-01-20T05:01:05.381Z,245.20
2019-01-20T05:03:33.408Z,83.03
2019-01-20T05:06:02.043Z,137.20
2019-01-20T05:08:30.630Z,101.22
2019-01-20T05:10:59.205Z,115.52
2019-01-20T05:13:27.456Z,125.10
2019-01-20T05:15:56.374Z,93.95
2019-01-20T05:18:24.963Z,65.52
2019-01-20T05:20:53.225Z,98.37
2019-01-20T05:23:21.200Z,86.32
2019-01-20T05:25:49.486Z,140.07
2019-01-20T05:28:17.453Z,89.70
2019-01-20T05:30:45.723Z,185.63
2019-01-20T05:33:14.299Z,154.47
2019-01-20T05:35:42.590Z,150.07
2019-01-20T05:38:12.712Z,190.80
2019-01-20T05:40:40.971Z,222.52
2019-01-20T05:43:08.970Z,233.97
2019-01-20T05:45:38.533Z,393.42
2019-01-20T05:48:08.291Z,240.87
2019-01-20T05:50:36.856Z,313.98
2019-01-20T05:53:04.834Z,358.15
2019-01-20T05:55:33.380Z,162.62
2019-01-20T05:58:01.669Z,231.87
2019-01-20T06:00:30.956Z,218.73
2019-01-20T06:02:59.476Z,107.00
2019-01-20T06:05:27.657Z,124.00
2019-01-20T06:07:55.647Z,163.15
2019-01-20T06:10:23.628Z,154.07
2019-01-20T06:12:54.153Z,153.18
2019-01-20T06:15:22.388Z,148.50
2019-01-20T06:17:50.394Z,97.25
2019-01-20T06:20:19.353Z,277.07
2019-01-20T06:22:47.320Z,229.65
2019-01-20T06:25:15.667Z,237.88
2019-01-20T06:27:43.975Z,103.25
2019-01-20T06:30:31.149Z,107.90
2019-01-20T06:32:59.143Z,168.05
2019-01-20T06:35:27.449Z,82.47
2019-01-20T06:37:55.422Z,92.72
2019-01-20T06:40:24.000Z,54.05
2019-01-20T06:42:52.245Z,182.22
2019-01-20T06:45:21.134Z,70.40
2019-01-20T06:47:49.213Z,111.40
2019-01-20T06:50:17.523Z,83.33
2019-01-20T06:52:46.773Z,189.85
2019-01-20T06:55:15.774Z,142.55
2019-01-20T06:57:44.075Z,148.13
2019-01-20T07:00:31.882Z,101.00
2019-01-20T07:03:00.158Z,142.55
2019-01-20T07:05:28.657Z,141.30
2019-01-20T07:07:56.808Z,75.35
2019-01-20T07:10:24.879Z,57.27
2019-01-20T07:12:53.430Z,36.33
2019-01-20T07:15:23.648Z,39.85
2019-01-20T07:17:52.593Z,81.05
2019-01-20T07:20:21.124Z,116.67
2019-01-20T07:22:49.423Z,87.65
2019-01-20T07:25:18.511Z,244.25
2019-01-20T07:27:46.629Z,178.60
2019-01-20T07:30:16.376Z,138.37
2019-01-20T07:32:44.876Z,45.75
2019-01-20T07:35:13.718Z,69.75
2019-01-20T07:37:42.379Z,94.65
2019-01-20T07:40:11.438Z,69.15
2019-01-20T07:42:39.881Z,173.67
2019-01-20T07:45:10.319Z,185.45
2019-01-20T07:47:38.448Z,71.40
2019-01-20T07:50:08.428Z,127.55
2019-01-20T07:52:36.660Z,220.57
2019-01-20T07:55:05.191Z,197.95
2019-01-20T07:57:34.148Z,238.80
2019-01-20T08:00:02.504Z,113.68
2019-01-20T08:02:30.683Z,171.57
2019-01-20T08:04:58.730Z,239.68
2019-01-20T08:07:27.221Z,109.67
2019-01-20T08:09:55.315Z,43.48
2019-01-20T08:12:23.728Z,223.53
2019-01-20T08:14:52.927Z,126.07
2019-01-20T08:17:22.208Z,66.37
2019-01-20T08:19:50.859Z,93.70
2019-01-20T08:22:19.432Z,64.20
2019-01-20T08:24:47.633Z,78.05
2019-01-20T08:27:16.256Z,84.75
2019-01-20T08:29:45.449Z,105.15
2019-01-20T08:32:14.566Z,156.30
2019-01-20T08:34:42.889Z,113.03
2019-01-20T08:37:11.113Z,109.52
2019-01-20T08:39:39.072Z,226.30
2019-01-20T08:42:07.493Z,212.30
2019-01-20T08:44:38.177Z,77.17
2019-01-20T08:47:24.489Z,78.20
2019-01-20T08:49:52.800Z,47.37
2019-01-20T08:52:21.043Z,40.80
2019-01-20T08:54:51.209Z,57.10
2019-01-20T08:57:19.499Z,87.15
2019-01-20T08:59:48.944Z,64.45
2019-01-20T09:02:16.906Z,36.68
2019-01-20T09:04:44.881Z,55.78
2019-01-20T09:07:12.881Z,31.37
2019-01-20T09:09:40.877Z,32.40
2019-01-20T09:12:10.668Z,21.90
2019-01-20T09:14:38.665Z,29.25
2019-01-20T09:17:06.888Z,36.15
2019-01-20T09:19:34.906Z,42.55
2019-01-20T09:22:02.876Z,63.58
2019-01-20T09:24:31.100Z,61.90
2019-01-20T09:26:59.061Z,63.25
2019-01-20T09:29:27.004Z,61.25
2019-01-20T09:31:55.001Z,98.70
2019-01-20T09:34:22.999Z,34.88
2019-01-20T09:36:51.080Z,71.33
2019-01-20T09:39:21.200Z,63.68
2019-01-20T09:41:49.857Z,110.78
2019-01-20T09:44:18.260Z,45.07
2019-01-20T09:46:46.799Z,36.17
2019-01-20T09:49:15.565Z,28.60
2019-01-20T09:51:44.447Z,81.75
2019-01-20T09:54:12.896Z,53.25
2019-01-20T09:56:41.424Z,76.37
2019-01-20T09:59:09.757Z,79.55
2019-01-20T10:01:38.361Z,71.67
2019-01-20T10:04:07.031Z,38.23
2019-01-20T10:06:35.337Z,30.50
2019-01-20T10:09:04.744Z,32.13
2019-01-20T10:11:32.838Z,34.58
2019-01-20T10:14:00.943Z,43.15
2019-01-20T10:16:29.439Z,39.65
2019-01-20T10:18:57.574Z,33.37
2019-01-20T10:21:25.657Z,48.08
2019-01-20T10:23:54.018Z,91.25
2019-01-20T10:26:22.251Z,56.45
2019-01-20T10:28:50.483Z,52.83
2019-01-20T10:31:18.534Z,48.00
2019-01-20T10:33:47.202Z,40.95
2019-01-20T10:36:15.651Z,50.43
2019-01-20T10:38:44.134Z,34.45
2019-01-20T10:41:12.485Z,85.22
2019-01-20T10:43:40.487Z,76.07
2019-01-20T10:46:08.722Z,53.68
2019-01-20T10:48:37.196Z,109.37
2019-01-20T10:51:05.930Z,61.33
2019-01-20T10:53:34.927Z,71.85
2019-01-20T10:56:03.144Z,98.90
2019-01-20T10:58:31.588Z,59.60
2019-01-20T11:01:00.063Z,61.73
2019-01-20T11:03:30.239Z,118.03
2019-01-20T11:05:59.012Z,56.85
2019-01-20T11:08:27.439Z,44.70
2019-01-20T11:10:55.668Z,52.13
2019-01-20T11:13:24.215Z,48.10
2019-01-20T11:15:52.375Z,41.37
2019-01-20T11:18:21.436Z,53.98
2019-01-20T11:20:49.518Z,39.70
2019-01-20T11:23:19.072Z,64.47
2019-01-20T11:25:47.188Z,37.70
2019-01-20T11:28:16.021Z,51.65
2019-01-20T11:30:44.627Z,45.40
2019-01-20T11:33:13.417Z,67.00
2019-01-20T11:35:41.625Z,55.33
2019-01-20T11:38:10.601Z,66.17
2019-01-20T11:40:39.499Z,45.95
2019-01-20T11:43:08.041Z,38.92
2019-01-20T11:45:36.927Z,37.50
2019-01-20T11:48:06.080Z,57.70
2019-01-20T11:50:35.436Z,47.80
2019-01-20T11:53:04.177Z,51.90
2019-01-20T11:55:32.397Z,43.20
2019-01-20T11:58:00.515Z,42.00
2019-01-20T12:00:33.329Z,43.92
2019-01-20T12:03:01.465Z,129.23
2019-01-20T12:05:30.688Z,39.38
2019-01-20T12:07:58.832Z,74.62
2019-01-20T12:10:26.903Z,28.85
2019-01-20T12:13:06.443Z,120.90
2019-01-20T12:15:34.888Z,67.43
2019-01-20T12:18:03.308Z,57.23
2019-01-20T12:20:31.840Z,81.37
2019-01-20T12:23:00.601Z,40.67
2019-01-20T12:25:28.699Z,92.33
2019-01-20T12:27:57.133Z,75.40
2019-01-20T12:30:25.980Z,41.20
2019-01-20T12:32:54.914Z,45.23
2019-01-20T12:35:23.864Z,45.17
2019-01-20T12:37:52.846Z,65.65
2019-01-20T12:40:26.763Z,48.28
2019-01-20T12:42:55.618Z,47.40
2019-01-20T12:45:23.870Z,45.73
2019-01-20T12:47:52.440Z,47.60
2019-01-20T12:50:20.625Z,43.50
2019-01-20T12:52:48.757Z,46.73
2019-01-20T12:55:17.076Z,42.57
2019-01-20T12:57:45.100Z,42.15
2019-01-20T13:00:14.637Z,51.80
2019-01-20T13:02:42.707Z,47.73
2019-01-20T13:05:11.320Z,45.27
2019-01-20T13:07:39.969Z,43.25
2019-01-20T13:10:09.604Z,47.85
2019-01-20T13:12:38.191Z,40.50
2019-01-20T13:15:07.348Z,43.78
2019-01-20T13:17:35.515Z,67.45
2019-01-20T13:20:04.165Z,46.43
2019-01-20T13:22:32.584Z,48.68
2019-01-20T13:25:01.036Z,58.45
2019-01-20T13:27:29.351Z,61.23
2019-01-20T13:29:58.081Z,84.47
2019-01-20T13:32:27.741Z,40.38
2019-01-20T13:34:56.147Z,75.78
2019-01-20T13:37:24.536Z,43.63
2019-01-20T13:39:52.627Z,56.55
2019-01-20T13:42:20.723Z,51.23
2019-01-20T13:44:48.874Z,45.30
2019-01-20T13:47:16.907Z,39.65
2019-01-20T13:49:45.394Z,45.23
2019-01-20T13:52:14.983Z,38.85
2019-01-20T13:54:43.315Z,34.73
2019-01-20T13:57:11.382Z,41.80
2019-01-20T13:59:39.460Z,45.12
2019-01-20T14:02:07.478Z,32.48
2019-01-20T14:04:35.971Z,40.30
2019-01-20T14:07:04.073Z,29.30
2019-01-20T14:09:32.485Z,54.13
2019-01-20T14:12:01.017Z,35.50
2019-01-20T14:14:29.278Z,74.35
2019-01-20T14:16:58.176Z,85.05
2019-01-20T14:19:26.647Z,77.20
2019-01-20T14:21:56.145Z,60.05
2019-01-20T14:24:24.259Z,42.93
2019-01-20T14:26:52.608Z,36.23
2019-01-20T14:29:20.757Z,40.03
2019-01-20T14:31:51.463Z,89.25
2019-01-20T14:34:19.851Z,96.28
2019-01-20T14:36:48.893Z,48.73
2019-01-20T14:39:16.995Z,47.55
2019-01-20T14:41:45.960Z,57.88
2019-01-20T14:44:14.543Z,32.60
2019-01-20T14:46:42.582Z,54.80
2019-01-20T14:49:10.796Z,49.95
2019-01-20T14:51:39.388Z,50.35
2019-01-20T14:54:08.002Z,36.00
2019-01-20T14:56:36.377Z,31.17
2019-01-20T14:59:04.954Z,31.20
2019-01-20T15:01:35.116Z,27.37
2019-01-20T15:04:03.249Z,27.85
2019-01-20T15:06:31.863Z,30.43
2019-01-20T15:09:00.221Z,118.47
2019-01-20T15:11:28.843Z,49.60
2019-01-20T15:13:56.977Z,36.00
2019-01-20T15:16:25.993Z,62.10
2019-01-20T15:18:54.920Z,52.80
2019-01-20T15:21:23.123Z,45.17
2019-01-20T15:23:51.301Z,58.95
2019-01-20T15:26:19.691Z,50.98
2019-01-20T15:28:47.776Z,63.45
2019-01-20T15:31:15.882Z,88.85
2019-01-20T15:33:44.022Z,68.40
2019-01-20T15:36:13.067Z,37.48
2019-01-20T15:38:41.462Z,31.87
2019-01-20T15:41:09.645Z,41.70
2019-01-20T15:43:38.365Z,45.83
2019-01-20T15:46:06.561Z,76.67
2019-01-20T15:48:34.680Z,83.42
2019-01-20T15:51:03.139Z,44.98
2019-01-20T15:53:31.780Z,65.30
2019-01-20T15:56:00.204Z,29.80
2019-01-20T15:58:28.690Z,35.43
2019-01-20T16:00:59.555Z,30.68
2019-01-20T16:03:28.493Z,30.72
2019-01-20T16:05:56.795Z,30.95
2019-01-20T16:08:25.276Z,34.07
2019-01-20T16:10:53.425Z,64.92
2019-01-20T16:13:21.516Z,62.88
2019-01-20T16:15:49.760Z,63.10
2019-01-20T16:18:17.862Z,41.00
2019-01-20T16:20:45.921Z,47.27
2019-01-20T16:23:14.193Z,37.00
2019-01-20T16:25:42.461Z,47.65
2019-01-20T16:28:11.599Z,39.80
2019-01-20T16:30:39.940Z,52.45
2019-01-20T16:33:08.540Z,38.20
2019-01-20T16:35:36.504Z,44.77
2019-01-20T16:38:05.270Z,47.73
2019-01-20T16:40:33.267Z,47.53
2019-01-20T16:43:01.237Z,61.43
2019-01-20T16:45:42.175Z,43.30
2019-01-20T16:48:06.876Z,40.13
2019-01-20T16:50:35.490Z,38.48
2019-01-20T16:53:03.449Z,50.90
2019-01-20T16:55:31.395Z,38.28
2019-01-20T16:58:00.019Z,42.15
2019-01-20T17:00:29.825Z,32.47
2019-01-20T17:02:58.181Z,48.02
2019-01-20T17:05:27.046Z,32.93
2019-01-20T17:07:55.120Z,40.70
2019-01-20T17:10:25.063Z,39.95
2019-01-20T17:12:53.013Z,41.18
2019-01-20T17:15:22.414Z,42.67
2019-01-20T17:17:50.738Z,42.13
2019-01-20T17:20:19.009Z,32.10
2019-01-20T17:22:47.310Z,31.57
2019-01-20T17:25:15.270Z,32.80
2019-01-20T17:27:43.218Z,45.95
2019-01-20T17:30:13.173Z,33.28
2019-01-20T17:32:41.160Z,31.05
2019-01-20T17:35:09.908Z,37.10
2019-01-20T17:37:38.499Z,60.67
2019-01-20T17:40:08.194Z,44.93
2019-01-20T17:42:36.195Z,60.08
2019-01-20T17:45:05.116Z,32.17
2019-01-20T17:47:33.134Z,35.33
2019-01-20T17:50:01.388Z,32.17
2019-01-20T17:52:29.366Z,32.48
2019-01-20T17:54:57.660Z,33.98
2019-01-20T17:57:25.931Z,32.53
2019-01-20T17:59:53.932Z,74.90
2019-01-20T18:02:22.183Z,107.17
2019-01-20T18:04:50.413Z,102.60
2019-01-20T18:07:18.448Z,46.92
2019-01-20T18:09:46.715Z,42.35
2019-01-20T18:12:14.717Z,62.30
2019-01-20T18:14:43.034Z,118.08
2019-01-20T18:17:11.326Z,67.05
2019-01-20T18:19:39.322Z,38.03
2019-01-20T18:22:07.987Z,65.03
2019-01-20T18:24:35.972Z,55.63
2019-01-20T18:27:04.334Z,42.23
2019-01-20T18:29:32.919Z,41.20
2019-01-20T18:32:00.934Z,41.60
2019-01-20T18:34:28.939Z,45.43
2019-01-20T18:36:57.233Z,31.75
2019-01-20T18:39:25.217Z,31.50
2019-01-20T18:41:53.482Z,30.90
2019-01-20T18:44:22.965Z,44.70
2019-01-20T18:46:51.261Z,42.55
2019-01-20T18:49:19.536Z,31.20
2019-01-20T18:51:48.359Z,58.20
2019-01-20T18:54:16.654Z,47.10
2019-01-20T18:56:45.289Z,42.33
2019-01-20T18:59:13.265Z,29.63
2019-01-20T19:01:41.537Z,27.20
2019-01-20T19:04:09.818Z,33.85
2019-01-20T19:06:38.145Z,27.85
2019-01-20T19:09:07.702Z,40.43
2019-01-20T19:11:35.648Z,69.55
2019-01-20T19:14:03.897Z,33.67
2019-01-20T19:16:32.146Z,32.93
2019-01-20T19:19:00.634Z,42.43
2019-01-20T19:21:28.954Z,45.55
2019-01-20T19:23:57.263Z,41.15
2019-01-20T19:26:25.539Z,25.62
2019-01-20T19:28:54.340Z,27.27
2019-01-20T19:31:22.552Z,23.87
2019-01-20T19:33:51.721Z,24.07
2019-01-20T19:36:20.002Z,27.67
2019-01-20T19:38:48.173Z,23.45
2019-01-20T19:41:16.414Z,22.27
2019-01-20T19:43:44.726Z,22.93
2019-01-20T19:46:16.389Z,25.45
2019-01-20T19:48:42.540Z,24.82
2019-01-20T19:51:10.504Z,28.23
2019-01-20T19:53:38.460Z,24.60
2019-01-20T19:56:06.445Z,25.00
2019-01-20T19:58:34.654Z,24.95
2019-01-20T20:01:02.675Z,23.60
2019-01-20T20:03:31.496Z,24.95
2019-01-20T20:05:59.462Z,25.37
2019-01-20T20:08:27.458Z,33.70
2019-01-20T20:10:55.748Z,40.67
2019-01-20T20:13:23.727Z,32.00
2019-01-20T20:15:51.731Z,30.35
2019-01-20T20:18:20.017Z,32.83
2019-01-20T20:20:48.014Z,22.20
2019-01-20T20:23:15.949Z,22.15
2019-01-20T20:25:43.915Z,20.95
2019-01-20T20:28:12.754Z,20.32
2019-01-20T20:30:41.149Z,28.95
2019-01-20T20:33:09.133Z,23.35
2019-01-20T20:35:37.380Z,23.00
2019-01-20T20:38:05.645Z,33.23
2019-01-20T20:40:33.650Z,28.07
2019-01-20T20:43:02.004Z,38.70
2019-01-20T20:45:30.298Z,28.83
2019-01-20T20:47:58.987Z,44.60
2019-01-20T20:50:26.968Z,31.52
2019-01-20T20:52:54.954Z,34.08
2019-01-20T20:55:23.313Z,43.95
2019-01-20T20:57:51.297Z,25.97
2019-01-20T21:00:24.868Z,36.88
2019-01-20T21:02:53.229Z,38.00
2019-01-20T21:05:22.025Z,29.12
2019-01-20T21:07:50.321Z,25.20
2019-01-20T21:10:18.353Z,42.93
2019-01-20T21:12:47.789Z,34.48
2019-01-20T21:15:15.820Z,31.68
2019-01-20T21:17:48.231Z,28.50
2019-01-20T21:20:15.280Z,30.95
2019-01-20T21:22:43.578Z,27.00
2019-01-20T21:25:11.944Z,26.85
2019-01-20T21:27:40.218Z,29.23
2019-01-20T21:30:10.809Z,26.50
2019-01-20T21:32:39.673Z,21.50
2019-01-20T21:35:07.885Z,25.60
2019-01-20T21:37:35.837Z,42.30
2019-01-20T21:40:04.733Z,26.48
2019-01-20T21:42:33.069Z,22.02
2019-01-20T21:45:01.405Z,21.70
2019-01-20T21:47:29.500Z,37.50
2019-01-20T21:49:57.480Z,40.52
2019-01-20T21:52:25.453Z,36.33
2019-01-20T21:54:53.434Z,24.23
2019-01-20T21:57:21.699Z,34.75
2019-01-20T21:59:49.661Z,26.95
2019-01-20T22:02:17.717Z,26.35
2019-01-20T22:04:46.008Z,31.93
2019-01-20T22:07:13.950Z,27.93
2019-01-20T22:09:41.985Z,34.25
2019-01-20T22:12:10.013Z,35.90
2019-01-20T22:14:38.368Z,42.17
2019-01-20T22:17:06.695Z,37.50
2019-01-20T22:19:34.692Z,44.48
2019-01-20T22:22:02.932Z,39.27
2019-01-20T22:24:30.877Z,38.45
2019-01-20T22:26:58.891Z,46.68
2019-01-20T22:29:26.878Z,35.50
2019-01-20T22:31:54.874Z,29.77
2019-01-20T22:34:22.817Z,33.87
2019-01-20T22:36:50.787Z,25.87
2019-01-20T22:39:19.076Z,67.72
2019-01-20T22:41:47.419Z,36.53
2019-01-20T22:44:15.686Z,32.63
2019-01-20T22:46:43.639Z,34.98
2019-01-20T22:49:12.527Z,46.92
2019-01-20T22:51:40.797Z,32.80
2019-01-20T22:54:09.088Z,32.55
2019-01-20T22:56:37.370Z,34.00
2019-01-20T22:59:05.304Z,30.10
2019-01-20T23:01:33.557Z,50.10
2019-01-20T23:04:01.791Z,49.20
2019-01-20T23:06:29.842Z,30.70
2019-01-20T23:08:58.035Z,70.63
2019-01-20T23:11:25.981Z,32.60
2019-01-20T23:13:53.951Z,43.55
2019-01-20T23:16:23.758Z,38.92
2019-01-20T23:18:52.344Z,69.20
2019-01-20T23:21:20.729Z,39.35
2019-01-20T23:23:48.729Z,34.27
2019-01-20T23:26:16.727Z,37.42
2019-01-20T23:28:45.032Z,46.25
2019-01-20T23:31:13.040Z,35.57
2019-01-20T23:33:41.009Z,32.10
2019-01-20T23:36:08.962Z,32.33
2019-01-20T23:38:37.389Z,41.28
2019-01-20T23:41:05.363Z,32.78
2019-01-20T23:43:34.012Z,34.80
2019-01-20T23:46:02.249Z,47.58
2019-01-20T23:48:30.872Z,71.45
2019-01-20T23:50:59.426Z,47.40
2019-01-20T23:53:27.404Z,50.03
2019-01-20T23:55:55.328Z,58.13
2019-01-20T23:58:23.289Z,34.88
